| time (UTC) | temp F | wind direction | speed MPH | gust MPH | rain 1hr in | rain 24hr in | rain mn in | humidity % | barometer mb |
| 20260509152551 | 46 | 137 | 0.0 | 1.0 | 0.03 | 0.07 | 0.07 | 93 | 1014.4 |
| 20260509152050 | 46 | 117 | 0.0 | 1.0 | 0.03 | 0.07 | 0.07 | 93 | 1014.4 |
| 20260509151550 | 46 | 206 | 0.0 | 0.0 | 0.03 | 0.06 | 0.06 | 92 | 1014.5 |
| 20260509151048 | 45 | 206 | 0.0 | 0.0 | 0.03 | 0.06 | 0.06 | 92 | 1014.5 |
| 20260509150547 | 45 | 206 | 0.0 | 1.0 | 0.03 | 0.06 | 0.06 | 92 | 1014.5 |
| 20260509150051 | 45 | 206 | 0.0 | 1.0 | 0.03 | 0.06 | 0.06 | 92 | 1014.5 |
| 20260509145550 | 45 | 205 | 0.0 | 0.0 | 0.03 | 0.05 | 0.05 | 91 | 1014.5 |
| 20260509145048 | 45 | 205 | 0.0 | 1.0 | 0.03 | 0.05 | 0.05 | 91 | 1014.5 |
| 20260509144547 | 45 | 205 | 0.0 | 2.0 | 0.04 | 0.05 | 0.05 | 92 | 1014.5 |
| 20260509144047 | 45 | 248 | 0.0 | 2.0 | 0.04 | 0.05 | 0.05 | 91 | 1014.5 |
| 20260509143547 | 45 | 245 | 0.0 | 1.0 | 0.03 | 0.04 | 0.04 | 92 | 1014.6 |
| 20260509143047 | 44 | 254 | 0.0 | 4.0 | 0.03 | 0.04 | 0.04 | 91 | 1014.6 |
| 20260509142546 | 45 | 265 | 1.0 | 3.0 | 0.03 | 0.04 | 0.04 | 92 | 1014.6 |
| 20260509142048 | 45 | 202 | 0.0 | 0.0 | 0.03 | 0.04 | 0.04 | 91 | 1014.6 |
| 20260509141546 | 45 | 202 | 0.0 | 0.0 | 0.02 | 0.03 | 0.03 | 91 | 1014.5 |
| 20260509141048 | 45 | 202 | 0.0 | 0.0 | 0.02 | 0.03 | 0.03 | 91 | 1014.5 |
| 20260509140544 | 44 | 202 | 0.0 | 0.0 | 0.03 | 0.03 | 0.03 | 90 | 1014.4 |
| 20260509140053 | 45 | 202 | 0.0 | 1.0 | 0.03 | 0.03 | 0.03 | 91 | 1014.4 |
| 20260509135544 | 44 | 202 | 0.0 | 1.0 | 0.02 | 0.02 | 0.02 | 90 | 1014.4 |
| 20260509135043 | 44 | 186 | 0.0 | 1.0 | 0.02 | 0.02 | 0.02 | 90 | 1014.4 |
| 20260509134605 | 44 | 187 | 0.0 | 2.0 | 0.01 | 0.01 | 0.01 | 90 | 1014.3 |
| 20260509134042 | 44 | 187 | 0.0 | 2.0 | 0.01 | 0.01 | 0.01 | 90 | 1014.3 |
| 20260509133540 | 44 | 144 | 0.0 | 1.0 | 0.01 | 0.01 | 0.01 | 90 | 1014.2 |
| 20260509133039 | 45 | 144 | 0.0 | 1.0 | 0.01 | 0.01 | 0.01 | 90 | 1014.2 |
| 20260509132538 | 44 | 125 | 0.0 | 1.0 | 0.01 | 0.01 | 0.01 | 90 | 1014.1 |
| 20260509132041 | 44 | 121 | 0.0 | 2.0 | 0.01 | 0.01 | 0.01 | 89 | 1014.0 |
| 20260509131547 | 44 | 94 | 0.0 | 2.0 | 0.01 | 0.01 | 0.01 | 90 | 1014.0 |
| 20260509131035 | 44 | 96 | 0.0 | 1.0 | 0.01 | 0.01 | 0.01 | 89 | 1014.1 |
| 20260509130534 | 44 | 152 | 0.0 | 1.0 | 0.00 | 0.00 | 0.00 | 89 | 1014.1 |
| 20260509130038 | 44 | 152 | 0.0 | 1.0 | 0.00 | 0.00 | 0.00 | 88 | 1014.2 |
| 20260509125532 | 43 | 152 | 0.0 | 1.0 | 0.00 | 0.00 | 0.00 | 87 | 1014.3 |
| 20260509125036 | 43 | 152 | 0.0 | 1.0 | 0.00 | 0.00 | 0.00 | 87 | 1014.3 |
| 20260509124532 | 43 | 152 | 0.0 | 1.0 | 0.00 | 0.00 | 0.00 | 87 | 1014.4 |
| 20260509124032 | 44 | 152 | 0.0 | 1.0 | 0.00 | 0.00 | 0.00 | 87 | 1014.5 |
| 20260509123531 | 43 | 150 | 0.0 | 1.0 | 0.00 | 0.00 | 0.00 | 86 | 1014.4 |
| 20260509123031 | 43 | 227 | 0.0 | 1.0 | 0.00 | 0.00 | 0.00 | 85 | 1014.5 |
| 20260509122530 | 43 | 202 | 0.0 | 2.0 | 0.00 | 0.00 | 0.00 | 85 | 1014.5 |
| 20260509122031 | 43 | 219 | 0.0 | 4.0 | 0.00 | 0.00 | 0.00 | 84 | 1014.6 |
| 20260509121530 | 43 | 205 | 2.0 | 3.0 | 0.00 | 0.00 | 0.00 | 84 | 1014.6 |
| 20260509121028 | 42 | 305 | 1.0 | 4.0 | 0.00 | 0.00 | 0.00 | 82 | 1014.6 |
| 20260509120528 | 42 | 214 | 0.0 | 1.0 | 0.00 | 0.00 | 0.00 | 84 | 1014.4 |
| 20260509120027 | 42 | 187 | 0.0 | 1.0 | 0.00 | 0.00 | 0.00 | 84 | 1014.4 |
| 20260509115526 | 42 | 187 | 0.0 | 2.0 | 0.00 | 0.00 | 0.00 | 85 | 1014.3 |
| 20260509115029 | 42 | 187 | 0.0 | 2.0 | 0.00 | 0.00 | 0.00 | 86 | 1014.4 |
| 20260509114528 | 41 | 117 | 0.0 | 2.0 | 0.00 | 0.00 | 0.00 | 86 | 1014.3 |
| 20260509114027 | 41 | 86 | 0.0 | 2.0 | 0.00 | 0.00 | 0.00 | 87 | 1014.3 |
| 20260509113526 | 41 | 111 | 0.0 | 2.0 | 0.00 | 0.00 | 0.00 | 87 | 1014.3 |
| 20260509113023 | 41 | 123 | 0.0 | 2.0 | 0.00 | 0.00 | 0.00 | 88 | 1014.3 |
| 20260509112522 | 41 | 94 | 0.0 | 2.0 | 0.00 | 0.00 | 0.00 | 89 | 1014.4 |
| 20260509112023 | 40 | 94 | 1.0 | 2.0 | 0.00 | 0.00 | 0.00 | 90 | 1014.5 |
| 20260509111523 | 40 | 79 | 0.0 | 1.0 | 0.00 | 0.00 | 0.00 | 90 | 1014.5 |
| 20260509111025 | 40 | 78 | 0.0 | 2.0 | 0.00 | 0.00 | 0.00 | 91 | 1014.5 |
| 20260509110521 | 39 | 63 | 0.0 | 2.0 | 0.00 | 0.00 | 0.00 | 91 | 1014.6 |
| 20260509110019 | 39 | 67 | 0.0 | 1.0 | 0.00 | 0.00 | 0.00 | 91 | 1014.6 |
| 20260509105518 | 38 | 67 | 0.0 | 1.0 | 0.00 | 0.00 | 0.00 | 92 | 1014.6 |
| 20260509105020 | 38 | 69 | 0.0 | 1.0 | 0.00 | 0.00 | 0.00 | 92 | 1014.7 |
| 20260509104518 | 38 | 67 | 0.0 | 2.0 | 0.00 | 0.00 | 0.00 | 92 | 1014.7 |
| 20260509104018 | 38 | 82 | 0.0 | 2.0 | 0.00 | 0.00 | 0.00 | 92 | 1014.5 |
| 20260509103515 | 38 | 143 | 0.0 | 1.0 | 0.00 | 0.00 | 0.00 | 92 | 1014.5 |
| 20260509103015 | 37 | 173 | 0.0 | 1.0 | 0.00 | 0.00 | 0.00 | 92 | 1014.5 |
| 20260509102514 | 37 | 173 | 0.0 | 1.0 | 0.00 | 0.00 | 0.00 | 92 | 1014.5 |
| 20260509102015 | 37 | 173 | 0.0 | 1.0 | 0.00 | 0.00 | 0.00 | 92 | 1014.5 |
| 20260509101519 | 37 | 174 | 0.0 | 1.0 | 0.00 | 0.00 | 0.00 | 92 | 1014.5 |
| 20260509101013 | 37 | 175 | 0.0 | 1.0 | 0.00 | 0.00 | 0.00 | 92 | 1014.5 |
| 20260509100510 | 36 | 180 | 0.0 | 1.0 | 0.00 | 0.00 | 0.00 | 92 | 1014.3 |
| 20260509100019 | 36 | 220 | 0.0 | 0.0 | 0.00 | 0.00 | 0.00 | 92 | 1014.2 |
| 20260509095509 | 36 | 220 | 0.0 | 0.0 | 0.00 | 0.00 | 0.00 | 92 | 1014.2 |
| 20260509095007 | 36 | 220 | 0.0 | 0.0 | 0.00 | 0.00 | 0.00 | 92 | 1014.1 |
| 20260509094512 | 35 | 220 | 0.0 | 0.0 | 0.00 | 0.00 | 0.00 | 92 | 1014.0 |
| 20260509094007 | 35 | 221 | 0.0 | 0.0 | 0.00 | 0.00 | 0.00 | 92 | 1014.0 |
| 20260509093505 | 35 | 221 | 0.0 | 0.0 | 0.00 | 0.00 | 0.00 | 92 | 1013.9 |
| 20260509093004 | 35 | 221 | 0.0 | 0.0 | 0.00 | 0.00 | 0.00 | 91 | 1013.7 |
| 20260509092504 | 35 | 221 | 0.0 | 0.0 | 0.00 | 0.00 | 0.00 | 91 | 1013.8 |
| 20260509092004 | 35 | 221 | 0.0 | 1.0 | 0.00 | 0.00 | 0.00 | 91 | 1013.7 |
| 20260509091504 | 35 | 221 | 0.0 | 1.0 | 0.00 | 0.00 | 0.00 | 91 | 1013.7 |
| 20260509091003 | 35 | 221 | 0.0 | 1.0 | 0.00 | 0.00 | 0.00 | 91 | 1013.8 |
| 20260509090502 | 35 | 222 | 0.0 | 2.0 | 0.00 | 0.00 | 0.00 | 91 | 1013.9 |
| 20260509090002 | 35 | 221 | 0.0 | 2.0 | 0.00 | 0.00 | 0.00 | 91 | 1013.8 |
| 20260509085600 | 35 | 221 | 0.0 | 2.0 | 0.00 | 0.00 | 0.00 | 91 | 1013.8 |
| 20260509085102 | 35 | 221 | 0.0 | 1.0 | 0.00 | 0.00 | 0.00 | 91 | 1013.6 |
| 20260509084601 | 35 | 221 | 0.0 | 1.0 | 0.00 | 0.00 | 0.00 | 91 | 1013.5 |
| 20260509084058 | 35 | 221 | 0.0 | 1.0 | 0.00 | 0.00 | 0.00 | 91 | 1013.4 |
| 20260509083555 | 35 | 221 | 0.0 | 1.0 | 0.00 | 0.00 | 0.00 | 91 | 1013.4 |
| 20260509083056 | 35 | 221 | 0.0 | 1.0 | 0.00 | 0.00 | 0.00 | 91 | 1013.4 |
| 20260509082554 | 35 | 221 | 0.0 | 1.0 | 0.00 | 0.00 | 0.00 | 91 | 1013.4 |
| 20260509082054 | 35 | 221 | 0.0 | 0.0 | 0.00 | 0.00 | 0.00 | 91 | 1013.3 |
| 20260509081554 | 35 | 221 | 0.0 | 0.0 | 0.00 | 0.00 | 0.00 | 91 | 1013.4 |
| 20260509081054 | 35 | 221 | 0.0 | 0.0 | 0.00 | 0.00 | 0.00 | 90 | 1013.4 |
| 20260509080552 | 35 | 221 | 0.0 | 0.0 | 0.00 | 0.00 | 0.00 | 90 | 1013.3 |
| 20260509080052 | 35 | 221 | 0.0 | 0.0 | 0.00 | 0.00 | 0.00 | 90 | 1013.4 |
| 20260509075551 | 36 | 221 | 0.0 | 1.0 | 0.00 | 0.00 | 0.00 | 90 | 1013.4 |
| 20260509075051 | 36 | 221 | 0.0 | 1.0 | 0.00 | 0.00 | 0.00 | 90 | 1013.4 |
| 20260509074559 | 36 | 221 | 0.0 | 1.0 | 0.00 | 0.00 | 0.00 | 90 | 1013.4 |
| 20260509074049 | 36 | 221 | 0.0 | 1.0 | 0.00 | 0.00 | 0.00 | 90 | 1013.4 |
| 20260509073549 | 36 | 220 | 0.0 | 1.0 | 0.00 | 0.00 | 0.00 | 90 | 1013.4 |
| 20260509073047 | 36 | 109 | 0.0 | 1.0 | 0.00 | 0.00 | 0.00 | 90 | 1013.3 |
| 20260509072547 | 36 | 108 | 0.0 | 1.0 | 0.00 | 0.00 | 0.00 | 90 | 1013.2 |
| 20260509072047 | 36 | 107 | 0.0 | 1.0 | 0.00 | 0.00 | 0.00 | 89 | 1013.2 |
| 20260509071546 | 36 | 107 | 0.0 | 1.0 | 0.00 | 0.00 | 0.00 | 89 | 1013.1 |
| 20260509071045 | 36 | 107 | 0.0 | 2.0 | 0.00 | 0.00 | 0.00 | 89 | 1013.1 |
| 20260509070544 | 37 | 108 | 0.0 | 0.0 | 0.00 | 0.00 | 0.00 | 89 | 1013.1 |
| 20260509070045 | 37 | 108 | 0.0 | 1.0 | 0.00 | 0.00 | 0.00 | 89 | 1013.2 |
| 20260509065541 | 37 | 108 | 0.0 | 2.0 | 0.00 | 0.00 | 0.00 | 88 | 1013.2 |
| 20260509065041 | 37 | 110 | 0.0 | 2.0 | 0.00 | 0.00 | 0.00 | 88 | 1013.2 |
| 20260509064555 | 37 | 199 | 0.0 | 1.0 | 0.00 | 0.00 | 0.00 | 88 | 1013.2 |
| 20260509064041 | 37 | 199 | 0.0 | 0.0 | 0.00 | 0.00 | 0.00 | 88 | 1013.2 |
| 20260509063539 | 37 | 199 | 0.0 | 0.0 | 0.00 | 0.00 | 0.00 | 87 | 1013.2 |
| 20260509063044 | 37 | 199 | 0.0 | 0.0 | 0.00 | 0.00 | 0.00 | 87 | 1013.3 |
| 20260509062542 | 37 | 199 | 0.0 | 0.0 | 0.00 | 0.00 | 0.00 | 87 | 1013.4 |
| 20260509062040 | 37 | 199 | 0.0 | 0.0 | 0.00 | 0.00 | 0.00 | 87 | 1013.3 |
| 20260509061542 | 38 | 199 | 0.0 | 0.0 | 0.00 | 0.00 | 0.00 | 87 | 1013.3 |
| 20260509061037 | 38 | 199 | 0.0 | 0.0 | 0.00 | 0.00 | 0.00 | 86 | 1013.3 |
| 20260509060536 | 38 | 199 | 0.0 | 0.0 | 0.00 | 0.00 | 0.00 | 86 | 1013.3 |
| 20260509060037 | 38 | 199 | 0.0 | 1.0 | 0.00 | 0.00 | 0.00 | 86 | 1013.4 |
| 20260509055534 | 38 | 199 | 0.0 | 1.0 | 0.00 | 0.00 | 0.00 | 86 | 1013.4 |
| 20260509055033 | 38 | 199 | 0.0 | 1.0 | 0.00 | 0.00 | 0.00 | 85 | 1013.3 |
| 20260509054536 | 39 | 199 | 0.0 | 1.0 | 0.00 | 0.00 | 0.00 | 85 | 1013.3 |
| 20260509054032 | 39 | 199 | 0.0 | 1.0 | 0.00 | 0.00 | 0.00 | 84 | 1013.3 |
| 20260509053531 | 39 | 199 | 0.0 | 0.0 | 0.00 | 0.00 | 0.00 | 84 | 1013.2 |
| 20260509053030 | 39 | 199 | 0.0 | 0.0 | 0.00 | 0.00 | 0.00 | 84 | 1013.2 |
| 20260509052530 | 39 | 199 | 0.0 | 0.0 | 0.00 | 0.00 | 0.00 | 84 | 1013.2 |
| 20260509052030 | 39 | 199 | 0.0 | 0.0 | 0.00 | 0.00 | 0.00 | 84 | 1013.1 |
| 20260509051534 | 39 | 199 | 0.0 | 0.0 | 0.00 | 0.00 | 0.00 | 84 | 1013.1 |
| 20260509051028 | 39 | 199 | 0.0 | 0.0 | 0.00 | 0.00 | 0.00 | 84 | 1013.1 |
| 20260509050529 | 39 | 199 | 0.0 | 0.0 | 0.00 | 0.00 | 0.00 | 84 | 1013.1 |
| 20260509050025 | 39 | 199 | 0.0 | 0.0 | 0.00 | 0.00 | 0.00 | 84 | 1013.0 |
| 20260509045525 | 40 | 199 | 0.0 | 0.0 | 0.00 | 0.00 | 0.00 | 83 | 1013.0 |
| 20260509045025 | 40 | 199 | 0.0 | 0.0 | 0.00 | 0.00 | 0.00 | 83 | 1013.0 |
| 20260509044524 | 40 | 199 | 0.0 | 0.0 | 0.00 | 0.00 | 0.00 | 82 | 1013.0 |
| 20260509044023 | 40 | 199 | 0.0 | 0.0 | 0.00 | 0.00 | 0.00 | 82 | 1013.0 |
| 20260509043523 | 40 | 199 | 0.0 | 1.0 | 0.00 | 0.00 | 0.00 | 82 | 1013.0 |
| 20260509043021 | 40 | 199 | 0.0 | 1.0 | 0.00 | 0.00 | 0.00 | 82 | 1013.0 |
| 20260509042521 | 40 | 199 | 0.0 | 1.0 | 0.00 | 0.00 | 0.00 | 81 | 1012.9 |
| 20260509042020 | 40 | 199 | 0.0 | 0.0 | 0.00 | 0.00 | 0.00 | 81 | 1012.9 |
| 20260509041519 | 41 | 199 | 0.0 | 0.0 | 0.00 | 0.00 | 0.00 | 80 | 1012.9 |
| 20260509041019 | 41 | 199 | 0.0 | 0.0 | 0.00 | 0.00 | 0.00 | 80 | 1012.8 |
| 20260509040517 | 41 | 199 | 0.0 | 0.0 | 0.00 | 0.00 | 0.00 | 80 | 1012.8 |
| 20260509040017 | 41 | 199 | 0.0 | 0.0 | 0.00 | 0.00 | 0.00 | 79 | 1012.7 |
| 20260509035521 | 41 | 199 | 0.0 | 0.0 | 0.00 | 0.00 | 0.00 | 78 | 1012.7 |
| 20260509035016 | 41 | 199 | 0.0 | 1.0 | 0.00 | 0.00 | 0.00 | 79 | 1012.7 |
| 20260509034536 | 41 | 199 | 0.0 | 1.0 | 0.00 | 0.00 | 0.00 | 79 | 1012.7 |
| 20260509034019 | 42 | 199 | 0.0 | 0.0 | 0.00 | 0.00 | 0.00 | 78 | 1012.7 |
| 20260509033515 | 42 | 199 | 0.0 | 0.0 | 0.00 | 0.00 | 0.00 | 78 | 1012.7 |
| 20260509033015 | 42 | 199 | 0.0 | 0.0 | 0.00 | 0.00 | 0.00 | 78 | 1012.5 |
| 20260509032514 | 42 | 199 | 0.0 | 0.0 | 0.00 | 0.00 | 0.00 | 77 | 1012.5 |
| 20260509032017 | 42 | 199 | 0.0 | 0.0 | 0.00 | 0.00 | 0.00 | 77 | 1012.4 |
| 20260509031514 | 42 | 199 | 0.0 | 0.0 | 0.00 | 0.00 | 0.00 | 77 | 1012.4 |
| 20260509031013 | 42 | 199 | 0.0 | 0.0 | 0.00 | 0.00 | 0.00 | 77 | 1012.3 |
| 20260509030512 | 43 | 199 | 0.0 | 0.0 | 0.00 | 0.00 | 0.00 | 76 | 1012.3 |
| 20260509030012 | 43 | 199 | 0.0 | 0.0 | 0.00 | 0.00 | 0.00 | 75 | 1012.3 |
| 20260509025511 | 43 | 199 | 0.0 | 0.0 | 0.00 | 0.00 | 0.00 | 75 | 1012.3 |
| 20260509025011 | 43 | 199 | 0.0 | 0.0 | 0.00 | 0.00 | 0.00 | 75 | 1012.2 |
| 20260509024510 | 44 | 199 | 0.0 | 0.0 | 0.00 | 0.00 | 0.00 | 75 | 1012.2 |
| 20260509024011 | 44 | 199 | 0.0 | 0.0 | 0.00 | 0.00 | 0.00 | 74 | 1012.1 |
| 20260509023509 | 44 | 199 | 0.0 | 0.0 | 0.00 | 0.00 | 0.00 | 73 | 1012.1 |
| 20260509023010 | 44 | 199 | 0.0 | 0.0 | 0.00 | 0.00 | 0.00 | 73 | 1012.1 |
| 20260509022509 | 45 | 199 | 0.0 | 0.0 | 0.00 | 0.00 | 0.00 | 73 | 1012.1 |
| 20260509022009 | 45 | 199 | 0.0 | 0.0 | 0.00 | 0.00 | 0.00 | 72 | 1012.0 |
| 20260509021508 | 45 | 199 | 0.0 | 1.0 | 0.00 | 0.00 | 0.00 | 71 | 1012.0 |
| 20260509021011 | 45 | 199 | 0.0 | 1.0 | 0.00 | 0.00 | 0.00 | 70 | 1011.9 |
| 20260509020512 | 45 | 199 | 0.0 | 1.0 | 0.00 | 0.00 | 0.00 | 68 | 1011.9 |
| 20260509020005 | 46 | 199 | 0.0 | 0.0 | 0.00 | 0.00 | 0.00 | 70 | 1011.7 |
| 20260509015507 | 46 | 199 | 0.0 | 0.0 | 0.00 | 0.00 | 0.00 | 68 | 1011.6 |
| 20260509015006 | 46 | 199 | 0.0 | 1.0 | 0.00 | 0.00 | 0.00 | 69 | 1011.5 |
| 20260509014505 | 46 | 199 | 0.0 | 1.0 | 0.00 | 0.00 | 0.00 | 68 | 1011.5 |
| 20260509014003 | 47 | 199 | 0.0 | 1.0 | 0.00 | 0.00 | 0.00 | 67 | 1011.4 |
| 20260509013503 | 47 | 199 | 0.0 | 0.0 | 0.00 | 0.00 | 0.00 | 65 | 1011.3 |
| 20260509013003 | 47 | 199 | 0.0 | 1.0 | 0.00 | 0.00 | 0.00 | 65 | 1011.3 |
| 20260509012504 | 47 | 199 | 0.0 | 1.0 | 0.00 | 0.00 | 0.00 | 65 | 1011.2 |
| 20260509012002 | 47 | 199 | 0.0 | 1.0 | 0.00 | 0.00 | 0.00 | 66 | 1011.1 |
| 20260509011501 | 47 | 198 | 0.0 | 1.0 | 0.00 | 0.00 | 0.00 | 65 | 1011.1 |
| 20260509011100 | 47 | 198 | 0.0 | 1.0 | 0.00 | 0.00 | 0.00 | 66 | 1011.0 |
| 20260509010559 | 48 | 199 | 0.0 | 1.0 | 0.00 | 0.00 | 0.00 | 64 | 1010.9 |
| 20260509010104 | 48 | 204 | 0.0 | 1.0 | 0.00 | 0.00 | 0.00 | 63 | 1010.7 |
| 20260509005557 | 48 | 132 | 0.0 | 1.0 | 0.00 | 0.00 | 0.00 | 64 | 1010.6 |
| 20260509005056 | 48 | 164 | 0.0 | 2.0 | 0.00 | 0.00 | 0.00 | 65 | 1010.6 |
| 20260509004620 | 48 | 159 | 0.0 | 1.0 | 0.00 | 0.00 | 0.00 | 63 | 1010.5 |
| 20260509004056 | 49 | 190 | 0.0 | 1.0 | 0.00 | 0.00 | 0.00 | 60 | 1010.4 |
| 20260509003559 | 49 | 190 | 0.0 | 2.0 | 0.00 | 0.00 | 0.00 | 61 | 1010.4 |
| 20260509003055 | 49 | 225 | 0.0 | 4.0 | 0.00 | 0.00 | 0.00 | 60 | 1010.3 |
| 20260509002554 | 49 | 222 | 0.0 | 4.0 | 0.00 | 0.00 | 0.00 | 58 | 1010.3 |
| 20260509002053 | 50 | 286 | 0.0 | 1.0 | 0.00 | 0.00 | 0.00 | 60 | 1010.1 |
| 20260509001555 | 50 | 281 | 0.0 | 1.0 | 0.00 | 0.00 | 0.00 | 56 | 1010.1 |
| 20260509001053 | 51 | 281 | 0.0 | 1.0 | 0.00 | 0.00 | 0.00 | 56 | 1010.0 |
| 20260509000551 | 51 | 281 | 0.0 | 2.0 | 0.00 | 0.00 | 0.00 | 53 | 1010.0 |
| 20260509000051 | 52 | 281 | 0.0 | 5.0 | 0.00 | 0.00 | 0.00 | 53 | 1010.0 |
| 20260508235552 | 52 | 290 | 1.0 | 5.0 | 0.00 | 0.00 | 0.00 | 55 | 1009.9 |
| 20260508235053 | 52 | 236 | 2.0 | 5.0 | 0.00 | 0.00 | 0.00 | 53 | 1009.7 |
| 20260508234551 | 52 | 273 | 0.0 | 2.0 | 0.00 | 0.00 | 0.00 | 52 | 1009.7 |
| 20260508234048 | 52 | 302 | 0.0 | 2.0 | 0.00 | 0.00 | 0.00 | 53 | 1009.5 |
| 20260508233552 | 52 | 198 | 0.0 | 4.0 | 0.00 | 0.00 | 0.00 | 52 | 1009.4 |
| 20260508233047 | 52 | 255 | 0.0 | 4.0 | 0.00 | 0.00 | 0.00 | 53 | 1009.3 |
| 20260508232546 | 53 | 288 | 1.0 | 4.0 | 0.00 | 0.00 | 0.00 | 52 | 1009.3 |
| 20260508232050 | 53 | 118 | 0.0 | 2.0 | 0.00 | 0.00 | 0.00 | 51 | 1009.2 |
| 20260508231546 | 53 | 304 | 0.0 | 1.0 | 0.00 | 0.00 | 0.00 | 49 | 1009.2 |
| 20260508231045 | 54 | 323 | 0.0 | 2.0 | 0.00 | 0.00 | 0.00 | 49 | 1009.0 |
| 20260508230545 | 54 | 323 | 0.0 | 2.0 | 0.00 | 0.00 | 0.00 | 48 | 1008.9 |
| 20260508230044 | 54 | 323 | 0.0 | 1.0 | 0.00 | 0.00 | 0.00 | 49 | 1008.9 |
| 20260508225545 | 55 | 323 | 0.0 | 4.0 | 0.00 | 0.00 | 0.00 | 45 | 1008.8 |
| 20260508225045 | 55 | 324 | 0.0 | 4.0 | 0.00 | 0.00 | 0.00 | 44 | 1008.8 |
| 20260508224550 | 55 | 10 | 0.0 | 4.0 | 0.00 | 0.00 | 0.00 | 43 | 1008.8 |
| 20260508224044 | 55 | 336 | 0.0 | 4.0 | 0.00 | 0.00 | 0.00 | 43 | 1008.8 |
| 20260508223544 | 55 | 326 | 1.0 | 2.0 | 0.00 | 0.00 | 0.00 | 45 | 1008.8 |
| 20260508223049 | 55 | 332 | 0.0 | 4.0 | 0.00 | 0.00 | 0.00 | 43 | 1008.7 |
| 20260508222543 | 55 | 266 | 1.0 | 4.0 | 0.00 | 0.00 | 0.00 | 41 | 1008.6 |
| 20260508222043 | 56 | 15 | 0.0 | 4.0 | 0.00 | 0.00 | 0.00 | 42 | 1008.6 |
| 20260508221544 | 56 | 59 | 1.0 | 7.0 | 0.00 | 0.00 | 0.00 | 42 | 1008.6 |
| 20260508221044 | 56 | 304 | 3.0 | 7.0 | 0.00 | 0.00 | 0.00 | 40 | 1008.6 |
| 20260508220543 | 56 | 344 | 2.0 | 5.0 | 0.00 | 0.00 | 0.00 | 40 | 1008.6 |
| 20260508220044 | 57 | 355 | 1.0 | 4.0 | 0.00 | 0.00 | 0.00 | 41 | 1008.6 |
| 20260508215541 | 57 | 340 | 0.0 | 4.0 | 0.00 | 0.00 | 0.00 | 41 | 1008.5 |
| 20260508215042 | 57 | 306 | 1.0 | 3.0 | 0.00 | 0.00 | 0.00 | 42 | 1008.4 |
| 20260508214557 | 57 | 239 | 1.0 | 5.0 | 0.00 | 0.00 | 0.00 | 39 | 1008.3 |
| 20260508214041 | 57 | 324 | 1.0 | 5.0 | 0.00 | 0.00 | 0.00 | 38 | 1008.3 |
| 20260508213541 | 57 | 242 | 1.0 | 5.0 | 0.00 | 0.00 | 0.00 | 37 | 1008.3 |
| 20260508213041 | 57 | 284 | 1.0 | 7.0 | 0.00 | 0.00 | 0.00 | 41 | 1008.3 |
| 20260508212541 | 58 | 145 | 0.0 | 7.0 | 0.00 | 0.00 | 0.00 | 38 | 1008.3 |
| 20260508212040 | 58 | 301 | 1.0 | 7.0 | 0.00 | 0.00 | 0.00 | 36 | 1008.3 |
| 20260508211541 | 59 | 236 | 1.0 | 7.0 | 0.00 | 0.00 | 0.00 | 35 | 1008.2 |
| 20260508211040 | 59 | 80 | 2.0 | 6.0 | 0.00 | 0.00 | 0.00 | 38 | 1008.1 |
| 20260508210540 | 58 | 250 | 2.0 | 6.0 | 0.00 | 0.00 | 0.00 | 37 | 1008.1 |
| 20260508210043 | 58 | 286 | 2.0 | 6.0 | 0.00 | 0.00 | 0.00 | 36 | 1008.0 |
| 20260508205539 | 58 | 333 | 2.0 | 6.0 | 0.00 | 0.00 | 0.00 | 39 | 1008.1 |
| 20260508205040 | 57 | 5 | 1.0 | 6.0 | 0.00 | 0.00 | 0.00 | 39 | 1008.0 |
| 20260508204541 | 58 | 329 | 2.0 | 6.0 | 0.00 | 0.00 | 0.00 | 37 | 1008.1 |
| 20260508204038 | 58 | 277 | 0.0 | 7.0 | 0.00 | 0.00 | 0.00 | 39 | 1008.0 |
| 20260508203539 | 57 | 318 | 2.0 | 7.0 | 0.00 | 0.00 | 0.00 | 35 | 1007.9 |
| 20260508203040 | 58 | 254 | 2.0 | 5.0 | 0.00 | 0.00 | 0.00 | 36 | 1007.9 |
| 20260508202539 | 58 | 216 | 0.0 | 6.0 | 0.00 | 0.00 | 0.00 | 35 | 1007.8 |
| 20260508202039 | 58 | 315 | 0.0 | 6.0 | 0.00 | 0.00 | 0.00 | 37 | 1007.8 |
| 20260508201537 | 58 | 254 | 1.0 | 6.0 | 0.00 | 0.00 | 0.00 | 37 | 1007.9 |
| 20260508201040 | 57 | 289 | 2.0 | 5.0 | 0.00 | 0.00 | 0.00 | 36 | 1007.8 |
| 20260508200537 | 58 | 48 | 2.0 | 8.0 | 0.00 | 0.00 | 0.00 | 35 | 1007.8 |
| 20260508200042 | 58 | 248 | 3.0 | 8.0 | 0.00 | 0.00 | 0.00 | 37 | 1007.8 |
| 20260508195539 | 58 | 167 | 2.0 | 5.0 | 0.00 | 0.00 | 0.00 | 39 | 1007.8 |
| 20260508195036 | 58 | 319 | 2.0 | 7.0 | 0.00 | 0.00 | 0.00 | 35 | 1007.7 |
| 20260508194536 | 58 | 245 | 3.0 | 7.0 | 0.00 | 0.00 | 0.00 | 36 | 1007.8 |
| 20260508194036 | 57 | 42 | 1.0 | 6.0 | 0.00 | 0.00 | 0.00 | 39 | 1007.7 |
| 20260508193536 | 57 | 225 | 0.0 | 7.0 | 0.00 | 0.00 | 0.00 | 39 | 1007.8 |
| 20260508193043 | 57 | 223 | 3.0 | 7.0 | 0.00 | 0.00 | 0.00 | 36 | 1007.9 |
| 20260508192536 | 57 | 293 | 2.0 | 7.0 | 0.00 | 0.00 | 0.00 | 37 | 1007.9 |
| 20260508192040 | 57 | 230 | 3.0 | 7.0 | 0.00 | 0.00 | 0.00 | 35 | 1007.9 |
| 20260508191547 | 57 | 245 | 3.0 | 6.0 | 0.00 | 0.00 | 0.00 | 36 | 1008.0 |
| 20260508191036 | 57 | 291 | 2.0 | 5.0 | 0.00 | 0.00 | 0.00 | 38 | 1008.0 |
| 20260508190535 | 57 | 244 | 2.0 | 6.0 | 0.00 | 0.00 | 0.00 | 37 | 1008.0 |
| 20260508190049 | 57 | 286 | 4.0 | 8.0 | 0.00 | 0.00 | 0.00 | 35 | 1008.0 |
| 20260508185539 | 57 | 228 | 2.0 | 8.0 | 0.00 | 0.00 | 0.00 | 36 | 1008.0 |
| 20260508185035 | 58 | 310 | 1.0 | 7.0 | 0.00 | 0.00 | 0.00 | 34 | 1008.0 |
| 20260508184537 | 58 | 144 | 2.0 | 6.0 | 0.00 | 0.00 | 0.00 | 36 | 1008.0 |
| 20260508184034 | 59 | 232 | 2.0 | 6.0 | 0.00 | 0.00 | 0.00 | 37 | 1008.1 |
| 20260508183534 | 59 | 304 | 3.0 | 7.0 | 0.00 | 0.00 | 0.00 | 35 | 1008.1 |
| 20260508183044 | 59 | 262 | 3.0 | 8.0 | 0.00 | 0.00 | 0.00 | 40 | 1008.0 |
| 20260508182534 | 58 | 292 | 2.0 | 8.0 | 0.00 | 0.00 | 0.00 | 33 | 1008.1 |
| 20260508182034 | 58 | 186 | 3.0 | 7.0 | 0.00 | 0.00 | 0.00 | 35 | 1008.1 |
| 20260508181537 | 58 | 244 | 3.0 | 7.0 | 0.00 | 0.00 | 0.00 | 34 | 1008.0 |
| 20260508181037 | 58 | 200 | 2.0 | 9.0 | 0.00 | 0.00 | 0.00 | 35 | 1007.9 |
| 20260508180533 | 58 | 191 | 3.0 | 9.0 | 0.00 | 0.00 | 0.00 | 33 | 1007.9 |
| 20260508180038 | 58 | 215 | 2.0 | 6.0 | 0.00 | 0.00 | 0.00 | 38 | 1007.9 |
| 20260508175632 | 58 | 340 | 2.0 | 10.0 | 0.00 | 0.00 | 0.00 | 34 | 1008.0 |
| 20260508175032 | 58 | 287 | 2.0 | 10.0 | 0.00 | 0.00 | 0.00 | 32 | 1007.9 |
| 20260508174537 | 59 | 179 | 2.0 | 6.0 | 0.00 | 0.00 | 0.00 | 38 | 1007.9 |
| 20260508174031 | 59 | 233 | 2.0 | 6.0 | 0.00 | 0.00 | 0.00 | 37 | 1008.0 |
| 20260508173530 | 59 | 219 | 2.0 | 12.0 | 0.00 | 0.00 | 0.00 | 35 | 1007.9 |
| 20260508173030 | 59 | 196 | 5.0 | 12.0 | 0.00 | 0.00 | 0.00 | 35 | 1007.8 |
| 20260508172530 | 59 | 351 | 3.0 | 6.0 | 0.00 | 0.00 | 0.00 | 37 | 1008.0 |
| 20260508172030 | 59 | 246 | 1.0 | 6.0 | 0.00 | 0.00 | 0.00 | 35 | 1007.8 |
| 20260508171531 | 59 | 322 | 2.0 | 8.0 | 0.00 | 0.00 | 0.00 | 38 | 1007.9 |
| 20260508171029 | 59 | 242 | 2.0 | 7.0 | 0.00 | 0.00 | 0.00 | 35 | 1008.0 |
| 20260508170528 | 59 | 307 | 4.0 | 7.0 | 0.00 | 0.00 | 0.00 | 38 | 1007.8 |
| 20260508170034 | 60 | 170 | 2.0 | 7.0 | 0.00 | 0.00 | 0.00 | 35 | 1007.8 |
| 20260508165527 | 58 | 5 | 3.0 | 8.0 | 0.00 | 0.00 | 0.00 | 41 | 1007.8 |
| 20260508165029 | 59 | 297 | 2.0 | 9.0 | 0.00 | 0.00 | 0.00 | 37 | 1007.8 |
| 20260508164536 | 59 | 236 | 5.0 | 9.0 | 0.00 | 0.00 | 0.00 | 38 | 1007.9 |
| 20260508164027 | 57 | 211 | 2.0 | 7.0 | 0.00 | 0.00 | 0.00 | 39 | 1007.9 |
| 20260508163526 | 59 | 273 | 1.0 | 7.0 | 0.00 | 0.00 | 0.00 | 36 | 1007.9 |
| 20260508163031 | 59 | 197 | 2.0 | 8.0 | 0.00 | 0.00 | 0.00 | 36 | 1007.9 |
| 20260508162526 | 59 | 259 | 1.0 | 8.0 | 0.00 | 0.00 | 0.00 | 38 | 1007.9 |
| 20260508162027 | 60 | 246 | 2.0 | 6.0 | 0.00 | 0.00 | 0.00 | 37 | 1007.8 |
| 20260508161525 | 59 | 267 | 3.0 | 6.0 | 0.00 | 0.00 | 0.00 | 42 | 1007.8 |
| 20260508161024 | 57 | 202 | 1.0 | 6.0 | 0.00 | 0.00 | 0.00 | 40 | 1007.9 |
| 20260508160524 | 56 | 232 | 1.0 | 6.0 | 0.00 | 0.00 | 0.00 | 43 | 1007.9 |
| 20260508160023 | 56 | 159 | 3.0 | 6.0 | 0.00 | 0.00 | 0.00 | 45 | 1007.9 |
| 20260508155523 | 56 | 9 | 3.0 | 6.0 | 0.00 | 0.00 | 0.00 | 42 | 1008.0 |
| 20260508155023 | 56 | 246 | 2.0 | 7.0 | 0.00 | 0.00 | 0.00 | 39 | 1008.1 |
| 20260508154523 | 56 | 230 | 3.0 | 9.0 | 0.00 | 0.00 | 0.00 | 39 | 1008.2 |
| 20260508154025 | 57 | 228 | 1.0 | 9.0 | 0.00 | 0.00 | 0.00 | 38 | 1008.2 |
| 20260508153522 | 58 | 206 | 2.0 | 8.0 | 0.00 | 0.00 | 0.00 | 38 | 1008.2 |
| 20260508153031 | 59 | 154 | 4.0 | 8.0 | 0.00 | 0.00 | 0.00 | 41 | 1008.4 |